sensor_id;sensor_type;location;lat;lon;timestamp;temperature;humidity
871;DHT22;422;51.280;7.236;2022-12-22T00:02:21;8.70;99.90
871;DHT22;422;51.280;7.236;2022-12-22T00:05:12;8.60;99.90
871;DHT22;422;51.280;7.236;2022-12-22T00:07:57;8.60;99.90
871;DHT22;422;51.280;7.236;2022-12-22T00:10:43;8.60;99.90
871;DHT22;422;51.280;7.236;2022-12-22T00:13:28;8.70;99.90
871;DHT22;422;51.280;7.236;2022-12-22T00:16:12;8.70;99.90
871;DHT22;422;51.280;7.236;2022-12-22T00:18:57;8.60;99.90
871;DHT22;422;51.280;7.236;2022-12-22T00:21:42;8.70;99.90
871;DHT22;422;51.280;7.236;2022-12-22T00:24:26;8.70;99.90
871;DHT22;422;51.280;7.236;2022-12-22T00:27:15;8.70;99.90
871;DHT22;422;51.280;7.236;2022-12-22T00:30:01;8.70;99.90
871;DHT22;422;51.280;7.236;2022-12-22T00:32:46;8.70;99.90
871;DHT22;422;51.280;7.236;2022-12-22T00:35:31;8.80;99.90
871;DHT22;422;51.280;7.236;2022-12-22T00:38:17;8.70;99.90
871;DHT22;422;51.280;7.236;2022-12-22T00:41:03;8.80;99.90
871;DHT22;422;51.280;7.236;2022-12-22T00:43:49;8.80;99.90
871;DHT22;422;51.280;7.236;2022-12-22T00:46:36;8.80;99.90
871;DHT22;422;51.280;7.236;2022-12-22T00:49:22;8.80;99.90
871;DHT22;422;51.280;7.236;2022-12-22T00:52:07;8.80;99.90
871;DHT22;422;51.280;7.236;2022-12-22T00:54:52;8.80;99.90
871;DHT22;422;51.280;7.236;2022-12-22T00:57:37;8.90;99.90
871;DHT22;422;51.280;7.236;2022-12-22T01:00:24;8.90;99.90
871;DHT22;422;51.280;7.236;2022-12-22T01:03:10;8.90;99.90
871;DHT22;422;51.280;7.236;2022-12-22T01:05:54;8.90;99.90
871;DHT22;422;51.280;7.236;2022-12-22T01:08:39;8.90;99.90
871;DHT22;422;51.280;7.236;2022-12-22T01:11:25;8.90;99.90
871;DHT22;422;51.280;7.236;2022-12-22T01:14:11;9.00;99.90
871;DHT22;422;51.280;7.236;2022-12-22T01:16:57;8.90;99.90
871;DHT22;422;51.280;7.236;2022-12-22T01:19:41;9.00;99.90
871;DHT22;422;51.280;7.236;2022-12-22T01:22:26;9.00;99.90
871;DHT22;422;51.280;7.236;2022-12-22T01:25:12;9.00;99.90
871;DHT22;422;51.280;7.236;2022-12-22T01:27:58;9.00;99.90
871;DHT22;422;51.280;7.236;2022-12-22T01:30:42;9.00;99.90
871;DHT22;422;51.280;7.236;2022-12-22T01:33:28;9.00;99.90
871;DHT22;422;51.280;7.236;2022-12-22T01:36:13;8.90;99.90
871;DHT22;422;51.280;7.236;2022-12-22T01:38:58;9.00;99.90
871;DHT22;422;51.280;7.236;2022-12-22T01:41:42;9.00;99.90
871;DHT22;422;51.280;7.236;2022-12-22T01:44:27;9.00;99.90
871;DHT22;422;51.280;7.236;2022-12-22T01:47:31;9.00;99.90
871;DHT22;422;51.280;7.236;2022-12-22T01:50:20;9.00;99.90
871;DHT22;422;51.280;7.236;2022-12-22T01:53:09;9.00;99.90
871;DHT22;422;51.280;7.236;2022-12-22T01:55:56;9.00;99.90
871;DHT22;422;51.280;7.236;2022-12-22T01:58:44;9.00;99.90
871;DHT22;422;51.280;7.236;2022-12-22T02:01:30;9.00;99.90
871;DHT22;422;51.280;7.236;2022-12-22T02:04:16;9.00;99.90
871;DHT22;422;51.280;7.236;2022-12-22T02:07:15;9.00;99.90
871;DHT22;422;51.280;7.236;2022-12-22T02:10:13;9.10;99.90
871;DHT22;422;51.280;7.236;2022-12-22T02:13:04;9.10;99.90
871;DHT22;422;51.280;7.236;2022-12-22T02:15:56;9.10;99.90
871;DHT22;422;51.280;7.236;2022-12-22T02:18:47;9.10;99.90
871;DHT22;422;51.280;7.236;2022-12-22T02:21:47;9.10;99.90
871;DHT22;422;51.280;7.236;2022-12-22T02:24:40;9.10;99.90
871;DHT22;422;51.280;7.236;2022-12-22T02:27:29;9.10;99.90
871;DHT22;422;51.280;7.236;2022-12-22T02:30:14;9.10;99.90
871;DHT22;422;51.280;7.236;2022-12-22T02:32:58;9.10;99.90
871;DHT22;422;51.280;7.236;2022-12-22T02:35:47;9.20;99.90
871;DHT22;422;51.280;7.236;2022-12-22T02:38:39;9.20;99.90
871;DHT22;422;51.280;7.236;2022-12-22T02:41:33;9.20;99.90
871;DHT22;422;51.280;7.236;2022-12-22T02:44:27;9.20;99.90
871;DHT22;422;51.280;7.236;2022-12-22T02:47:19;9.20;99.90
871;DHT22;422;51.280;7.236;2022-12-22T02:50:13;9.20;99.90
871;DHT22;422;51.280;7.236;2022-12-22T02:53:01;9.20;99.90
871;DHT22;422;51.280;7.236;2022-12-22T02:55:46;9.20;99.90
871;DHT22;422;51.280;7.236;2022-12-22T02:58:32;9.30;99.90
871;DHT22;422;51.280;7.236;2022-12-22T03:01:19;9.30;99.90
871;DHT22;422;51.280;7.236;2022-12-22T03:04:04;9.20;99.90
871;DHT22;422;51.280;7.236;2022-12-22T03:06:48;9.30;99.90
871;DHT22;422;51.280;7.236;2022-12-22T03:09:32;9.30;99.90
871;DHT22;422;51.280;7.236;2022-12-22T03:12:17;9.30;99.90
871;DHT22;422;51.280;7.236;2022-12-22T03:15:02;9.30;99.90
871;DHT22;422;51.280;7.236;2022-12-22T03:17:47;9.30;99.90
871;DHT22;422;51.280;7.236;2022-12-22T03:20:32;9.30;99.90
871;DHT22;422;51.280;7.236;2022-12-22T03:23:16;9.30;99.90
871;DHT22;422;51.280;7.236;2022-12-22T03:26:01;9.30;99.90
871;DHT22;422;51.280;7.236;2022-12-22T03:28:28;9.30;99.90
871;DHT22;422;51.280;7.236;2022-12-22T03:30:57;9.40;99.90
871;DHT22;422;51.280;7.236;2022-12-22T03:33:27;9.40;99.90
871;DHT22;422;51.280;7.236;2022-12-22T03:35:54;9.40;99.90
871;DHT22;422;51.280;7.236;2022-12-22T03:38:22;9.40;99.90
871;DHT22;422;51.280;7.236;2022-12-22T03:40:49;9.40;99.90
871;DHT22;422;51.280;7.236;2022-12-22T03:43:16;9.40;99.90
871;DHT22;422;51.280;7.236;2022-12-22T03:46:01;9.40;99.90
871;DHT22;422;51.280;7.236;2022-12-22T03:48:47;9.40;99.90
871;DHT22;422;51.280;7.236;2022-12-22T03:51:35;9.40;99.90
871;DHT22;422;51.280;7.236;2022-12-22T03:54:03;9.40;99.90
871;DHT22;422;51.280;7.236;2022-12-22T03:56:30;9.40;99.90
871;DHT22;422;51.280;7.236;2022-12-22T03:58:57;9.40;99.90
871;DHT22;422;51.280;7.236;2022-12-22T04:01:25;9.40;99.90
871;DHT22;422;51.280;7.236;2022-12-22T04:03:53;9.40;99.90
871;DHT22;422;51.280;7.236;2022-12-22T04:06:20;9.40;99.90
871;DHT22;422;51.280;7.236;2022-12-22T04:08:48;9.40;99.90
871;DHT22;422;51.280;7.236;2022-12-22T04:11:16;9.40;99.90
871;DHT22;422;51.280;7.236;2022-12-22T04:14:01;9.50;99.90
871;DHT22;422;51.280;7.236;2022-12-22T04:16:28;9.40;99.90
871;DHT22;422;51.280;7.236;2022-12-22T04:18:57;9.50;99.90
871;DHT22;422;51.280;7.236;2022-12-22T04:21:25;9.50;99.90
871;DHT22;422;51.280;7.236;2022-12-22T04:23:52;9.50;99.90
871;DHT22;422;51.280;7.236;2022-12-22T04:26:20;9.50;99.90
871;DHT22;422;51.280;7.236;2022-12-22T04:28:49;9.40;99.90
871;DHT22;422;51.280;7.236;2022-12-22T04:31:16;9.50;99.90
871;DHT22;422;51.280;7.236;2022-12-22T04:33:44;9.50;99.90
871;DHT22;422;51.280;7.236;2022-12-22T04:36:13;9.50;99.90
871;DHT22;422;51.280;7.236;2022-12-22T04:38:49;9.50;99.90
871;DHT22;422;51.280;7.236;2022-12-22T04:41:17;9.50;99.90
871;DHT22;422;51.280;7.236;2022-12-22T04:43:44;9.50;99.90
871;DHT22;422;51.280;7.236;2022-12-22T04:46:11;9.50;99.90
871;DHT22;422;51.280;7.236;2022-12-22T04:48:38;9.50;99.90
871;DHT22;422;51.280;7.236;2022-12-22T04:51:05;9.50;99.90
871;DHT22;422;51.280;7.236;2022-12-22T04:53:34;9.50;99.90
871;DHT22;422;51.280;7.236;2022-12-22T04:56:03;9.50;99.90
871;DHT22;422;51.280;7.236;2022-12-22T04:58:31;9.50;99.90
871;DHT22;422;51.280;7.236;2022-12-22T05:01:07;9.50;99.90
871;DHT22;422;51.280;7.236;2022-12-22T05:03:35;9.50;99.90
871;DHT22;422;51.280;7.236;2022-12-22T05:06:02;9.50;99.90
871;DHT22;422;51.280;7.236;2022-12-22T05:08:29;9.50;99.90
871;DHT22;422;51.280;7.236;2022-12-22T05:10:58;9.50;99.90
871;DHT22;422;51.280;7.236;2022-12-22T05:13:25;9.50;99.90
871;DHT22;422;51.280;7.236;2022-12-22T05:15:52;9.40;99.90
871;DHT22;422;51.280;7.236;2022-12-22T05:18:19;9.40;99.90
871;DHT22;422;51.280;7.236;2022-12-22T05:20:46;9.30;99.90
871;DHT22;422;51.280;7.236;2022-12-22T05:23:13;9.40;99.90
871;DHT22;422;51.280;7.236;2022-12-22T05:25:40;9.40;99.90
871;DHT22;422;51.280;7.236;2022-12-22T05:28:09;9.40;99.90
871;DHT22;422;51.280;7.236;2022-12-22T05:30:36;9.40;99.90
871;DHT22;422;51.280;7.236;2022-12-22T05:33:03;9.40;99.90
871;DHT22;422;51.280;7.236;2022-12-22T05:35:30;9.40;99.90
871;DHT22;422;51.280;7.236;2022-12-22T05:37:58;9.40;99.90
871;DHT22;422;51.280;7.236;2022-12-22T05:40:25;9.50;99.90
871;DHT22;422;51.280;7.236;2022-12-22T05:42:52;9.40;99.90
871;DHT22;422;51.280;7.236;2022-12-22T05:45:21;9.40;99.90
871;DHT22;422;51.280;7.236;2022-12-22T05:47:50;9.50;99.90
871;DHT22;422;51.280;7.236;2022-12-22T05:50:20;9.50;99.90
871;DHT22;422;51.280;7.236;2022-12-22T05:52:48;9.50;99.90
871;DHT22;422;51.280;7.236;2022-12-22T05:55:15;9.50;99.90
871;DHT22;422;51.280;7.236;2022-12-22T05:57:43;9.40;99.90
871;DHT22;422;51.280;7.236;2022-12-22T06:00:13;9.30;99.90
871;DHT22;422;51.280;7.236;2022-12-22T06:02:43;9.40;99.90
871;DHT22;422;51.280;7.236;2022-12-22T06:05:12;9.40;99.90
871;DHT22;422;51.280;7.236;2022-12-22T06:07:39;9.30;99.90
871;DHT22;422;51.280;7.236;2022-12-22T06:10:09;9.30;99.90
871;DHT22;422;51.280;7.236;2022-12-22T06:12:36;9.30;99.90
871;DHT22;422;51.280;7.236;2022-12-22T06:15:05;9.30;99.90
871;DHT22;422;51.280;7.236;2022-12-22T06:17:32;9.30;99.90
871;DHT22;422;51.280;7.236;2022-12-22T06:20:01;9.30;99.90
871;DHT22;422;51.280;7.236;2022-12-22T06:22:28;9.20;99.90
871;DHT22;422;51.280;7.236;2022-12-22T06:24:55;9.30;99.90
871;DHT22;422;51.280;7.236;2022-12-22T06:27:23;9.40;99.90
871;DHT22;422;51.280;7.236;2022-12-22T06:29:50;9.40;99.90
871;DHT22;422;51.280;7.236;2022-12-22T06:32:18;9.40;99.90
871;DHT22;422;51.280;7.236;2022-12-22T06:34:45;9.50;99.90
871;DHT22;422;51.280;7.236;2022-12-22T06:37:13;9.50;99.90
871;DHT22;422;51.280;7.236;2022-12-22T06:39:41;9.50;99.90
871;DHT22;422;51.280;7.236;2022-12-22T06:42:08;9.50;99.90
871;DHT22;422;51.280;7.236;2022-12-22T06:44:53;9.40;99.90
871;DHT22;422;51.280;7.236;2022-12-22T06:47:20;9.40;99.90
871;DHT22;422;51.280;7.236;2022-12-22T06:49:47;9.40;99.90
871;DHT22;422;51.280;7.236;2022-12-22T06:52:16;9.40;99.90
871;DHT22;422;51.280;7.236;2022-12-22T06:54:43;9.40;99.90
871;DHT22;422;51.280;7.236;2022-12-22T06:57:10;9.40;99.90
871;DHT22;422;51.280;7.236;2022-12-22T06:59:37;9.30;99.90
871;DHT22;422;51.280;7.236;2022-12-22T07:02:05;9.30;99.90
871;DHT22;422;51.280;7.236;2022-12-22T07:04:32;9.40;99.90
871;DHT22;422;51.280;7.236;2022-12-22T07:06:59;9.30;99.90
871;DHT22;422;51.280;7.236;2022-12-22T07:09:28;9.40;99.90
871;DHT22;422;51.280;7.236;2022-12-22T07:11:55;9.40;99.90
871;DHT22;422;51.280;7.236;2022-12-22T07:14:22;9.40;99.90
871;DHT22;422;51.280;7.236;2022-12-22T07:16:49;9.40;99.90
871;DHT22;422;51.280;7.236;2022-12-22T07:19:16;9.30;99.90
871;DHT22;422;51.280;7.236;2022-12-22T07:21:43;9.30;99.90
871;DHT22;422;51.280;7.236;2022-12-22T07:24:12;9.30;99.90
871;DHT22;422;51.280;7.236;2022-12-22T07:26:42;9.40;99.90
871;DHT22;422;51.280;7.236;2022-12-22T07:29:09;9.40;99.90
871;DHT22;422;51.280;7.236;2022-12-22T07:31:36;9.40;99.90
871;DHT22;422;51.280;7.236;2022-12-22T07:34:04;9.40;99.90
871;DHT22;422;51.280;7.236;2022-12-22T07:36:31;9.30;99.90
871;DHT22;422;51.280;7.236;2022-12-22T07:38:58;9.40;99.90
871;DHT22;422;51.280;7.236;2022-12-22T07:41:26;9.40;99.90
871;DHT22;422;51.280;7.236;2022-12-22T07:44:11;9.40;99.90
871;DHT22;422;51.280;7.236;2022-12-22T07:46:39;9.40;99.90
871;DHT22;422;51.280;7.236;2022-12-22T07:49:06;9.40;99.90
871;DHT22;422;51.280;7.236;2022-12-22T07:51:51;9.40;99.90
871;DHT22;422;51.280;7.236;2022-12-22T07:54:18;9.50;99.90
871;DHT22;422;51.280;7.236;2022-12-22T07:56:46;9.40;99.90
871;DHT22;422;51.280;7.236;2022-12-22T07:59:15;9.50;99.90
871;DHT22;422;51.280;7.236;2022-12-22T08:01:42;9.50;99.90
871;DHT22;422;51.280;7.236;2022-12-22T08:04:10;9.50;99.90
871;DHT22;422;51.280;7.236;2022-12-22T08:06:38;9.50;99.90
871;DHT22;422;51.280;7.236;2022-12-22T08:09:07;9.50;99.90
871;DHT22;422;51.280;7.236;2022-12-22T08:11:34;9.60;99.90
871;DHT22;422;51.280;7.236;2022-12-22T08:14:02;9.60;99.90
871;DHT22;422;51.280;7.236;2022-12-22T08:16:30;9.60;99.90
871;DHT22;422;51.280;7.236;2022-12-22T08:18:57;9.60;99.90
871;DHT22;422;51.280;7.236;2022-12-22T08:21:25;9.60;99.90
871;DHT22;422;51.280;7.236;2022-12-22T08:23:52;9.60;99.90
871;DHT22;422;51.280;7.236;2022-12-22T08:26:21;9.60;99.90
871;DHT22;422;51.280;7.236;2022-12-22T08:28:54;9.60;99.90
871;DHT22;422;51.280;7.236;2022-12-22T08:31:25;9.70;99.90
871;DHT22;422;51.280;7.236;2022-12-22T08:33:54;9.70;99.90
871;DHT22;422;51.280;7.236;2022-12-22T08:36:23;9.70;99.90
871;DHT22;422;51.280;7.236;2022-12-22T08:38:51;9.70;99.90
871;DHT22;422;51.280;7.236;2022-12-22T08:41:18;9.60;99.90
871;DHT22;422;51.280;7.236;2022-12-22T08:44:06;9.60;99.90
871;DHT22;422;51.280;7.236;2022-12-22T08:46:33;9.60;99.90
871;DHT22;422;51.280;7.236;2022-12-22T08:49:01;9.60;99.90
871;DHT22;422;51.280;7.236;2022-12-22T08:51:29;9.60;99.90
871;DHT22;422;51.280;7.236;2022-12-22T08:53:56;9.60;99.90
871;DHT22;422;51.280;7.236;2022-12-22T08:56:23;9.50;99.90
871;DHT22;422;51.280;7.236;2022-12-22T08:58:50;9.50;99.90
871;DHT22;422;51.280;7.236;2022-12-22T09:01:19;9.50;99.90
871;DHT22;422;51.280;7.236;2022-12-22T09:03:47;9.40;99.90
871;DHT22;422;51.280;7.236;2022-12-22T09:06:18;9.40;99.90
871;DHT22;422;51.280;7.236;2022-12-22T09:08:45;9.40;99.90
871;DHT22;422;51.280;7.236;2022-12-22T09:11:13;9.40;99.90
871;DHT22;422;51.280;7.236;2022-12-22T09:13:41;9.40;99.90
871;DHT22;422;51.280;7.236;2022-12-22T09:16:09;9.40;99.90
871;DHT22;422;51.280;7.236;2022-12-22T09:18:36;9.40;99.90
871;DHT22;422;51.280;7.236;2022-12-22T09:21:03;9.30;99.90
871;DHT22;422;51.280;7.236;2022-12-22T09:23:32;9.40;99.90
871;DHT22;422;51.280;7.236;2022-12-22T09:25:59;9.40;99.90
871;DHT22;422;51.280;7.236;2022-12-22T09:28:26;9.30;99.90
871;DHT22;422;51.280;7.236;2022-12-22T09:30:53;9.30;99.90
871;DHT22;422;51.280;7.236;2022-12-22T09:33:21;9.20;99.90
871;DHT22;422;51.280;7.236;2022-12-22T09:35:50;9.30;99.90
871;DHT22;422;51.280;7.236;2022-12-22T09:38:18;9.30;99.90
871;DHT22;422;51.280;7.236;2022-12-22T09:40:46;9.30;99.90
871;DHT22;422;51.280;7.236;2022-12-22T09:43:16;9.30;99.90
871;DHT22;422;51.280;7.236;2022-12-22T09:45:45;9.40;99.90
871;DHT22;422;51.280;7.236;2022-12-22T09:48:13;9.40;99.90
871;DHT22;422;51.280;7.236;2022-12-22T09:50:41;9.40;99.90
871;DHT22;422;51.280;7.236;2022-12-22T09:53:21;9.40;99.90
871;DHT22;422;51.280;7.236;2022-12-22T09:55:51;9.40;99.90
871;DHT22;422;51.280;7.236;2022-12-22T09:58:22;9.40;99.90
871;DHT22;422;51.280;7.236;2022-12-22T10:00:55;9.40;99.90
871;DHT22;422;51.280;7.236;2022-12-22T10:03:31;9.50;99.90
871;DHT22;422;51.280;7.236;2022-12-22T10:06:06;9.50;99.90
871;DHT22;422;51.280;7.236;2022-12-22T10:08:38;9.60;99.90
871;DHT22;422;51.280;7.236;2022-12-22T10:11:12;9.60;99.90
871;DHT22;422;51.280;7.236;2022-12-22T10:13:39;9.80;99.90
871;DHT22;422;51.280;7.236;2022-12-22T10:16:20;9.80;99.90
871;DHT22;422;51.280;7.236;2022-12-22T10:18:59;9.80;99.90
871;DHT22;422;51.280;7.236;2022-12-22T10:21:27;9.80;99.90
871;DHT22;422;51.280;7.236;2022-12-22T10:23:54;9.80;99.90
871;DHT22;422;51.280;7.236;2022-12-22T10:26:24;9.90;99.90
871;DHT22;422;51.280;7.236;2022-12-22T10:28:54;10.00;99.90
871;DHT22;422;51.280;7.236;2022-12-22T10:31:25;10.00;99.90
871;DHT22;422;51.280;7.236;2022-12-22T10:33:55;9.90;99.90
871;DHT22;422;51.280;7.236;2022-12-22T10:36:24;9.80;99.90
871;DHT22;422;51.280;7.236;2022-12-22T10:38:58;9.80;99.90
871;DHT22;422;51.280;7.236;2022-12-22T10:41:29;9.80;99.90
871;DHT22;422;51.280;7.236;2022-12-22T10:43:59;9.70;99.90
871;DHT22;422;51.280;7.236;2022-12-22T10:46:37;9.70;99.90
871;DHT22;422;51.280;7.236;2022-12-22T10:49:11;9.50;99.90
871;DHT22;422;51.280;7.236;2022-12-22T10:51:40;9.40;99.90
871;DHT22;422;51.280;7.236;2022-12-22T10:54:08;9.40;99.90
871;DHT22;422;51.280;7.236;2022-12-22T10:56:58;9.20;99.90
871;DHT22;422;51.280;7.236;2022-12-22T10:59:26;9.20;99.90
871;DHT22;422;51.280;7.236;2022-12-22T11:01:53;9.20;99.90
871;DHT22;422;51.280;7.236;2022-12-22T11:04:22;9.10;99.90
871;DHT22;422;51.280;7.236;2022-12-22T11:06:50;9.20;99.90
871;DHT22;422;51.280;7.236;2022-12-22T11:09:18;9.10;99.90
871;DHT22;422;51.280;7.236;2022-12-22T11:11:48;9.20;99.90
871;DHT22;422;51.280;7.236;2022-12-22T11:14:26;9.20;99.90
871;DHT22;422;51.280;7.236;2022-12-22T11:17:00;9.10;99.90
871;DHT22;422;51.280;7.236;2022-12-22T11:19:47;9.20;99.90
871;DHT22;422;51.280;7.236;2022-12-22T11:22:27;9.20;99.90
871;DHT22;422;51.280;7.236;2022-12-22T11:25:14;9.20;99.90
871;DHT22;422;51.280;7.236;2022-12-22T11:27:55;9.20;99.90
871;DHT22;422;51.280;7.236;2022-12-22T11:30:31;9.10;99.90
871;DHT22;422;51.280;7.236;2022-12-22T11:33:20;9.10;99.90
871;DHT22;422;51.280;7.236;2022-12-22T11:35:56;9.20;99.90
871;DHT22;422;51.280;7.236;2022-12-22T11:38:40;9.40;99.90
871;DHT22;422;51.280;7.236;2022-12-22T11:41:24;9.60;99.90
871;DHT22;422;51.280;7.236;2022-12-22T11:44:05;9.90;99.90
871;DHT22;422;51.280;7.236;2022-12-22T11:46:44;10.20;99.90
871;DHT22;422;51.280;7.236;2022-12-22T11:49:39;10.40;99.90
871;DHT22;422;51.280;7.236;2022-12-22T11:52:22;10.50;99.90
871;DHT22;422;51.280;7.236;2022-12-22T11:55:12;10.40;99.90
871;DHT22;422;51.280;7.236;2022-12-22T11:57:47;10.40;99.90
871;DHT22;422;51.280;7.236;2022-12-22T12:00:18;10.40;99.90
871;DHT22;422;51.280;7.236;2022-12-22T12:03:04;10.30;99.90
871;DHT22;422;51.280;7.236;2022-12-22T12:05:40;10.20;99.90
871;DHT22;422;51.280;7.236;2022-12-22T12:08:16;10.40;99.90
871;DHT22;422;51.280;7.236;2022-12-22T12:10:49;10.20;99.90
871;DHT22;422;51.280;7.236;2022-12-22T12:13:25;10.20;99.90
871;DHT22;422;51.280;7.236;2022-12-22T12:16:02;10.40;99.90
871;DHT22;422;51.280;7.236;2022-12-22T12:18:46;10.60;99.90
871;DHT22;422;51.280;7.236;2022-12-22T12:21:24;10.90;99.90
871;DHT22;422;51.280;7.236;2022-12-22T12:24:10;11.20;99.90
871;DHT22;422;51.280;7.236;2022-12-22T12:26:45;11.20;99.90
871;DHT22;422;51.280;7.236;2022-12-22T12:29:17;10.90;99.90
871;DHT22;422;51.280;7.236;2022-12-22T12:31:47;10.60;99.90
871;DHT22;422;51.280;7.236;2022-12-22T12:34:18;10.60;99.90
871;DHT22;422;51.280;7.236;2022-12-22T12:36:49;10.90;99.90
871;DHT22;422;51.280;7.236;2022-12-22T12:39:24;11.00;99.90
871;DHT22;422;51.280;7.236;2022-12-22T12:42:03;11.10;99.90
871;DHT22;422;51.280;7.236;2022-12-22T12:44:33;11.10;99.90
871;DHT22;422;51.280;7.236;2022-12-22T12:50:00;10.90;99.90
871;DHT22;422;51.280;7.236;2022-12-22T12:53:02;11.00;99.90
871;DHT22;422;51.280;7.236;2022-12-22T12:55:31;10.80;99.90
871;DHT22;422;51.280;7.236;2022-12-22T12:58:00;10.70;1.00
871;DHT22;422;51.280;7.236;2022-12-22T13:00:43;10.50;1.00
871;DHT22;422;51.280;7.236;2022-12-22T13:03:35;10.50;1.00
871;DHT22;422;51.280;7.236;2022-12-22T13:06:06;10.60;27.50
871;DHT22;422;51.280;7.236;2022-12-22T13:09:10;10.70;1.00
871;DHT22;422;51.280;7.236;2022-12-22T13:11:37;10.80;1.00
871;DHT22;422;51.280;7.236;2022-12-22T13:14:05;10.80;1.00
871;DHT22;422;51.280;7.236;2022-12-22T13:16:35;10.80;85.50
871;DHT22;422;51.280;7.236;2022-12-22T13:19:09;10.50;1.00
871;DHT22;422;51.280;7.236;2022-12-22T13:21:41;10.40;1.00
871;DHT22;422;51.280;7.236;2022-12-22T13:24:19;10.50;99.90
871;DHT22;422;51.280;7.236;2022-12-22T13:26:50;10.40;99.90
871;DHT22;422;51.280;7.236;2022-12-22T13:29:26;10.20;99.90
871;DHT22;422;51.280;7.236;2022-12-22T13:31:56;10.00;99.90
871;DHT22;422;51.280;7.236;2022-12-22T13:34:40;10.00;99.90
871;DHT22;422;51.280;7.236;2022-12-22T13:37:20;9.80;99.90
871;DHT22;422;51.280;7.236;2022-12-22T13:40:08;9.60;99.90
871;DHT22;422;51.280;7.236;2022-12-22T13:42:38;9.60;99.90
871;DHT22;422;51.280;7.236;2022-12-22T13:45:16;9.60;99.90
871;DHT22;422;51.280;7.236;2022-12-22T13:47:45;9.60;99.90
871;DHT22;422;51.280;7.236;2022-12-22T13:50:18;9.50;99.90
871;DHT22;422;51.280;7.236;2022-12-22T13:52:48;9.50;99.90
871;DHT22;422;51.280;7.236;2022-12-22T13:55:19;9.50;99.90
871;DHT22;422;51.280;7.236;2022-12-22T13:57:47;9.50;99.90
871;DHT22;422;51.280;7.236;2022-12-22T14:00:19;9.50;99.90
871;DHT22;422;51.280;7.236;2022-12-22T14:02:47;9.40;1.00
871;DHT22;422;51.280;7.236;2022-12-22T14:05:15;9.30;1.00
871;DHT22;422;51.280;7.236;2022-12-22T14:07:59;9.20;1.00
871;DHT22;422;51.280;7.236;2022-12-22T14:10:30;9.10;1.00
871;DHT22;422;51.280;7.236;2022-12-22T14:13:01;9.10;99.90
871;DHT22;422;51.280;7.236;2022-12-22T14:22:10;9.00;1.00
871;DHT22;422;51.280;7.236;2022-12-22T14:24:44;9.00;99.90
871;DHT22;422;51.280;7.236;2022-12-22T14:27:18;9.00;99.90
871;DHT22;422;51.280;7.236;2022-12-22T14:29:48;9.10;1.00
871;DHT22;422;51.280;7.236;2022-12-22T14:32:34;9.00;99.90
871;DHT22;422;51.280;7.236;2022-12-22T14:35:01;9.00;99.90
871;DHT22;422;51.280;7.236;2022-12-22T14:37:28;9.10;1.00
871;DHT22;422;51.280;7.236;2022-12-22T14:39:57;9.00;1.00
871;DHT22;422;51.280;7.236;2022-12-22T14:42:24;9.00;1.00
871;DHT22;422;51.280;7.236;2022-12-22T14:44:51;9.00;1.00
871;DHT22;422;51.280;7.236;2022-12-22T14:47:21;9.00;1.00
871;DHT22;422;51.280;7.236;2022-12-22T14:49:51;9.00;99.90
871;DHT22;422;51.280;7.236;2022-12-22T14:52:23;9.00;99.90
871;DHT22;422;51.280;7.236;2022-12-22T14:54:53;9.00;90.00
871;DHT22;422;51.280;7.236;2022-12-22T14:57:31;9.00;36.90
871;DHT22;422;51.280;7.236;2022-12-22T15:00:04;9.00;77.90
871;DHT22;422;51.280;7.236;2022-12-22T15:02:33;9.00;99.90
871;DHT22;422;51.280;7.236;2022-12-22T15:05:15;8.90;99.90
871;DHT22;422;51.280;7.236;2022-12-22T15:07:45;8.90;1.00
871;DHT22;422;51.280;7.236;2022-12-22T15:10:12;8.90;1.00
871;DHT22;422;51.280;7.236;2022-12-22T15:12:41;8.80;1.00
871;DHT22;422;51.280;7.236;2022-12-22T15:15:14;8.80;1.00
871;DHT22;422;51.280;7.236;2022-12-22T15:17:44;8.70;1.00
871;DHT22;422;51.280;7.236;2022-12-22T15:20:17;8.70;67.20
871;DHT22;422;51.280;7.236;2022-12-22T15:22:45;8.60;99.90
871;DHT22;422;51.280;7.236;2022-12-22T15:25:13;8.60;99.90
871;DHT22;422;51.280;7.236;2022-12-22T15:27:43;8.60;1.00
871;DHT22;422;51.280;7.236;2022-12-22T15:30:12;8.60;1.00
871;DHT22;422;51.280;7.236;2022-12-22T15:32:40;8.60;99.90
871;DHT22;422;51.280;7.236;2022-12-22T15:35:16;8.60;99.90
871;DHT22;422;51.280;7.236;2022-12-22T15:37:44;8.60;99.90
871;DHT22;422;51.280;7.236;2022-12-22T15:40:18;8.60;99.90
871;DHT22;422;51.280;7.236;2022-12-22T15:42:47;8.50;1.00
871;DHT22;422;51.280;7.236;2022-12-22T15:45:15;8.50;99.90
871;DHT22;422;51.280;7.236;2022-12-22T15:47:44;8.50;99.90
871;DHT22;422;51.280;7.236;2022-12-22T15:50:15;8.50;1.00
871;DHT22;422;51.280;7.236;2022-12-22T15:52:49;8.50;1.00
871;DHT22;422;51.280;7.236;2022-12-22T15:55:17;8.40;1.00
871;DHT22;422;51.280;7.236;2022-12-22T15:57:45;8.40;99.90
871;DHT22;422;51.280;7.236;2022-12-22T16:00:15;8.40;1.00
871;DHT22;422;51.280;7.236;2022-12-22T16:02:42;8.40;99.90
871;DHT22;422;51.280;7.236;2022-12-22T16:05:10;8.40;1.00
871;DHT22;422;51.280;7.236;2022-12-22T16:07:39;8.40;99.90
871;DHT22;422;51.280;7.236;2022-12-22T16:10:17;8.40;99.90
871;DHT22;422;51.280;7.236;2022-12-22T16:12:48;8.50;99.90
871;DHT22;422;51.280;7.236;2022-12-22T16:15:21;8.40;99.90
871;DHT22;422;51.280;7.236;2022-12-22T16:17:51;8.50;99.90
871;DHT22;422;51.280;7.236;2022-12-22T16:20:18;8.40;1.00
871;DHT22;422;51.280;7.236;2022-12-22T16:22:46;8.40;1.00
871;DHT22;422;51.280;7.236;2022-12-22T16:25:17;8.40;36.50
871;DHT22;422;51.280;7.236;2022-12-22T16:27:45;8.40;99.90
871;DHT22;422;51.280;7.236;2022-12-22T16:30:17;8.40;99.90
871;DHT22;422;51.280;7.236;2022-12-22T16:32:46;8.30;99.90
871;DHT22;422;51.280;7.236;2022-12-22T16:35:15;8.30;99.90
871;DHT22;422;51.280;7.236;2022-12-22T16:37:43;8.40;99.90
871;DHT22;422;51.280;7.236;2022-12-22T16:40:11;8.30;99.90
871;DHT22;422;51.280;7.236;2022-12-22T16:42:39;8.30;99.90
871;DHT22;422;51.280;7.236;2022-12-22T16:45:17;8.20;99.90
871;DHT22;422;51.280;7.236;2022-12-22T16:47:47;8.20;99.90
871;DHT22;422;51.280;7.236;2022-12-22T16:50:16;8.20;99.90
871;DHT22;422;51.280;7.236;2022-12-22T16:52:44;8.30;99.90
871;DHT22;422;51.280;7.236;2022-12-22T16:55:13;8.20;99.90
871;DHT22;422;51.280;7.236;2022-12-22T16:57:41;8.20;99.90
871;DHT22;422;51.280;7.236;2022-12-22T17:00:13;8.20;99.90
871;DHT22;422;51.280;7.236;2022-12-22T17:02:42;8.20;99.90
871;DHT22;422;51.280;7.236;2022-12-22T17:05:24;8.10;99.90
871;DHT22;422;51.280;7.236;2022-12-22T17:07:53;8.20;99.90
871;DHT22;422;51.280;7.236;2022-12-22T17:10:21;8.20;99.90
871;DHT22;422;51.280;7.236;2022-12-22T17:12:49;8.20;99.90
871;DHT22;422;51.280;7.236;2022-12-22T17:15:19;8.20;99.90
871;DHT22;422;51.280;7.236;2022-12-22T17:17:47;8.30;99.90
871;DHT22;422;51.280;7.236;2022-12-22T17:20:18;8.30;99.90
871;DHT22;422;51.280;7.236;2022-12-22T17:22:48;8.30;99.90
871;DHT22;422;51.280;7.236;2022-12-22T17:25:20;8.30;99.90
871;DHT22;422;51.280;7.236;2022-12-22T17:27:48;8.30;99.90
871;DHT22;422;51.280;7.236;2022-12-22T17:30:17;8.40;99.90
871;DHT22;422;51.280;7.236;2022-12-22T17:32:47;8.30;99.90
871;DHT22;422;51.280;7.236;2022-12-22T17:35:20;8.40;99.90
871;DHT22;422;51.280;7.236;2022-12-22T17:37:49;8.40;99.90
871;DHT22;422;51.280;7.236;2022-12-22T17:40:21;8.40;99.90
871;DHT22;422;51.280;7.236;2022-12-22T17:42:48;8.40;99.90
871;DHT22;422;51.280;7.236;2022-12-22T17:45:16;8.40;99.90
871;DHT22;422;51.280;7.236;2022-12-22T17:47:44;8.40;99.90